createdAt,value
2023-04-01T00:00:48.230Z,41510.37
2023-04-01T00:05:54.762Z,39875.94
2023-04-01T00:11:02.174Z,39848.29
2023-04-01T00:16:17.641Z,40292.13
2023-04-01T00:21:23.861Z,42351.45
2023-04-01T00:26:28.556Z,42333.32
2023-04-01T00:31:34.178Z,41957.89
2023-04-01T00:36:37.658Z,40891.13
2023-04-01T00:41:44.468Z,40907.46
2023-04-01T00:46:53.580Z,42015.88
2023-04-01T00:51:59.496Z,42249.65
2023-04-01T00:57:08.505Z,41474.31
2023-04-01T01:02:15.698Z,41208.16
2023-04-01T01:07:29.745Z,39788.22
2023-04-01T01:12:43.329Z,41969.77
2023-04-01T01:17:52.945Z,42813.88
2023-04-01T01:23:18.955Z,44069.20
2023-04-01T01:28:33.403Z,42415.43
2023-04-01T01:33:51.694Z,43098.81
2023-04-01T01:38:59.071Z,43043.52
2023-04-01T01:44:05.473Z,43922.01
2023-04-01T01:49:10.746Z,43925.48
2023-04-01T01:54:18.888Z,43261.25
2023-04-01T01:59:24.673Z,43151.19
2023-04-01T02:04:28.614Z,42808.31
2023-04-01T02:09:36.250Z,42500.31
2023-04-01T02:14:44.798Z,42913.02
2023-04-01T02:19:50.732Z,41989.59
2023-04-01T02:25:00.336Z,42482.18
2023-04-01T02:30:06.481Z,42231.60
2023-04-01T02:35:12.265Z,42128.21
2023-04-01T02:40:19.788Z,42848.31
2023-04-01T02:45:23.129Z,43991.63
2023-04-01T02:50:26.802Z,45105.84
2023-04-01T02:55:32.287Z,44551.50
2023-04-01T03:00:36.364Z,43667.88
2023-04-01T03:05:39.706Z,42685.37
2023-04-01T03:10:44.484Z,43404.13
2023-04-01T03:15:47.844Z,44143.86
2023-04-01T03:20:51.694Z,45375.29
2023-04-01T03:25:58.596Z,44636.05
2023-04-01T03:31:02.035Z,44719.79
2023-04-01T03:36:08.479Z,44404.86
2023-04-01T03:41:15.587Z,45213.71
2023-04-01T03:46:19.758Z,45438.93
2023-04-01T03:51:23.486Z,46035.34
2023-04-01T03:56:28.476Z,46311.94
2023-04-01T04:01:33.342Z,43262.57
2023-04-01T04:06:37.215Z,42919.79
2023-04-01T04:11:42.277Z,42929.99
2023-04-01T04:16:45.658Z,42225.41
2023-04-01T04:21:51.304Z,39406.09
2023-04-01T04:26:56.355Z,39635.66
2023-04-01T04:32:00.064Z,40501.04
2023-04-01T04:37:04.029Z,40120.82
2023-04-01T04:42:12.946Z,40157.88
2023-04-01T04:47:16.717Z,40929.80
2023-04-01T04:52:20.516Z,41148.54
2023-04-01T04:57:25.382Z,40606.96
2023-04-01T05:02:32.625Z,40184.72
2023-04-01T05:07:38.447Z,40317.09
2023-04-01T05:12:43.305Z,39802.51
2023-04-01T05:17:49.498Z,39817.11
2023-04-01T05:22:57.505Z,40344.42
2023-04-01T05:28:02.818Z,40733.11
2023-04-01T05:33:08.354Z,40844.30
2023-04-01T05:38:11.781Z,40918.63
2023-04-01T05:43:18.771Z,42166.50
2023-04-01T05:48:25.330Z,41476.19
2023-04-01T05:53:28.741Z,42008.60
2023-04-01T05:58:33.489Z,42705.24
2023-04-01T06:03:37.490Z,40581.34
2023-04-01T06:08:44.742Z,41029.10
2023-04-01T06:14:03.861Z,40248.21
2023-04-01T06:19:18.302Z,40182.18
2023-04-01T06:24:37.833Z,41293.46
2023-04-01T06:29:53.071Z,45113.85
2023-04-01T06:35:18.297Z,43488.51
2023-04-01T06:40:36.827Z,42566.06
2023-04-01T06:45:51.582Z,41838.54
2023-04-01T06:51:23.459Z,42152.97
2023-04-01T06:57:07.813Z,42705.93
2023-04-01T07:02:23.332Z,43382.29
2023-04-01T07:07:35.678Z,43156.41
2023-04-01T07:12:46.369Z,43574.27
2023-04-01T07:17:55.745Z,43730.26
2023-04-01T07:23:01.242Z,41356.09
2023-04-01T07:28:14.981Z,40653.91
2023-04-01T07:33:35.551Z,39474.53
2023-04-01T07:38:50.137Z,40370.08
2023-04-01T07:44:08.338Z,42046.07
2023-04-01T07:49:19.305Z,44046.20
2023-04-01T07:54:32.892Z,44121.93
2023-04-01T07:59:45.103Z,41556.89
2023-04-01T08:05:31.695Z,39930.60
2023-04-01T08:10:46.256Z,39262.35
2023-04-01T08:16:14.832Z,38798.05
2023-04-01T08:21:30.281Z,39192.66
2023-04-01T08:26:38.358Z,39359.54
2023-04-01T08:31:48.294Z,39436.78
2023-04-01T08:37:00.410Z,38967.72
2023-04-01T08:42:34.081Z,39687.71
2023-04-01T08:47:54.951Z,39533.78
2023-04-01T08:53:05.838Z,39506.20
2023-04-01T08:58:30.713Z,39184.82
2023-04-01T09:04:04.778Z,39260.13
2023-04-01T09:09:28.108Z,40537.96
2023-04-01T09:14:49.106Z,41896.29
2023-04-01T09:20:23.369Z,42058.00
2023-04-01T09:25:46.280Z,41291.25
2023-04-01T09:31:08.502Z,40806.73
2023-04-01T09:36:31.152Z,41298.10
2023-04-01T09:41:43.116Z,34704.36
2023-04-01T09:47:08.769Z,26207.70
2023-04-01T09:52:20.944Z,36051.65
2023-04-01T09:57:43.802Z,30034.65
2023-04-01T10:03:17.642Z,39272.76
2023-04-01T10:08:41.003Z,40343.65
2023-04-01T10:14:02.334Z,40464.29
2023-04-01T10:19:23.890Z,40681.26
2023-04-01T10:24:58.603Z,37640.35
2023-04-01T10:30:25.098Z,32545.37
2023-04-01T10:36:02.627Z,34936.41
2023-04-01T10:41:29.638Z,33677.38
2023-04-01T10:47:07.126Z,36003.85
2023-04-01T10:52:37.681Z,36724.25
2023-04-01T10:58:16.939Z,35972.03
2023-04-01T11:04:14.795Z,37189.01
2023-04-01T11:09:56.058Z,38202.47
2023-04-01T11:15:20.446Z,37672.15
2023-04-01T11:20:39.973Z,37556.75
2023-04-01T11:25:54.737Z,38153.34
2023-04-01T11:31:32.792Z,36991.71
2023-04-01T11:36:47.875Z,37520.16
2023-04-01T11:42:04.498Z,36734.88
2023-04-01T11:47:26.667Z,36385.68
2023-04-01T11:52:42.830Z,36052.26
2023-04-01T11:57:54.066Z,36892.04
2023-04-01T12:03:12.802Z,36942.24
2023-04-01T12:08:33.588Z,36988.35
2023-04-01T12:13:46.775Z,37328.17
2023-04-01T12:18:58.740Z,37458.50
2023-04-01T12:24:15.564Z,36746.51
2023-04-01T12:29:43.095Z,37315.50
2023-04-01T12:34:59.402Z,36819.95
2023-04-01T12:40:20.878Z,37099.90
2023-04-01T12:45:32.302Z,36671.43
2023-04-01T12:50:48.768Z,36072.29
2023-04-01T12:55:53.710Z,36930.09
2023-04-01T13:01:15.320Z,37092.00
2023-04-01T13:06:29.880Z,36233.09
2023-04-01T13:17:29.382Z,34104.95
2023-04-01T13:22:40.950Z,38369.49
2023-04-01T13:27:46.743Z,39201.47
2023-04-01T13:32:58.232Z,39762.14
2023-04-01T13:38:14.455Z,39256.78
2023-04-01T13:43:22.851Z,39814.02
2023-04-01T13:48:32.392Z,40254.73
2023-04-01T13:53:49.186Z,40058.12
2023-04-01T13:59:09.665Z,40369.68
2023-04-01T14:04:45.037Z,40161.81
2023-04-01T14:10:02.557Z,40505.71
2023-04-01T14:15:22.607Z,40235.59
2023-04-01T14:20:32.016Z,40868.63
2023-04-01T14:25:57.872Z,40972.04
2023-04-01T14:31:15.223Z,40755.68
2023-04-01T14:36:36.474Z,40743.63
2023-04-01T14:41:50.131Z,40528.42
2023-04-01T14:47:11.362Z,40076.02
2023-04-01T14:52:19.980Z,39497.18
2023-04-01T14:57:27.988Z,39196.78
2023-04-01T15:02:41.357Z,39140.13
2023-04-01T15:07:57.901Z,39244.71
2023-04-01T15:13:12.079Z,39684.27
2023-04-01T15:18:22.089Z,39677.75
2023-04-01T15:23:37.336Z,39988.53
2023-04-01T15:28:53.126Z,39580.60
2023-04-01T15:34:09.801Z,42193.38
2023-04-01T15:39:17.922Z,41793.70
2023-04-01T15:44:45.473Z,41122.66
2023-04-01T15:49:58.382Z,40259.22
2023-04-01T15:55:25.682Z,40563.03
2023-04-01T16:00:33.048Z,39614.25
2023-04-01T16:05:50.042Z,40257.84
2023-04-01T16:11:09.399Z,40902.47
2023-04-01T16:16:22.267Z,41102.13
2023-04-01T16:21:38.163Z,41781.51
2023-04-01T16:26:50.873Z,42986.45
2023-04-01T16:32:02.537Z,42417.70
2023-04-01T16:37:14.430Z,42367.63
2023-04-01T16:42:37.165Z,43950.25
2023-04-01T16:47:43.309Z,43361.50
2023-04-01T16:53:12.206Z,44828.89
2023-04-01T16:58:21.108Z,45481.33
2023-04-01T17:03:29.891Z,44161.70
2023-04-01T17:08:48.026Z,42713.21
2023-04-01T17:14:00.036Z,43085.07
2023-04-01T17:19:11.201Z,43157.65
2023-04-01T17:24:27.862Z,42499.83
2023-04-01T17:29:36.663Z,42828.26
2023-04-01T17:34:47.264Z,43317.71
2023-04-01T17:39:59.774Z,42276.77
2023-04-01T17:45:11.020Z,43039.75
2023-04-01T17:50:23.885Z,42376.84
2023-04-01T17:55:47.342Z,41450.60
2023-04-01T18:01:11.401Z,41071.06
2023-04-01T18:06:21.977Z,41526.34
2023-04-01T18:11:36.139Z,42421.79
2023-04-01T18:16:49.486Z,42015.14
2023-04-01T18:21:56.843Z,41950.44
2023-04-01T18:27:06.235Z,42561.66
2023-04-01T18:32:15.593Z,42067.31
2023-04-01T18:37:26.199Z,42464.61
2023-04-01T18:42:37.246Z,42602.59
2023-04-01T18:47:48.096Z,42640.10
2023-04-01T18:52:56.252Z,42723.23
2023-04-01T18:58:14.296Z,42241.04
2023-04-01T19:03:24.533Z,41772.77
2023-04-01T19:08:30.162Z,42544.41
2023-04-01T19:13:42.972Z,41957.70
2023-04-01T19:19:01.231Z,42382.75
2023-04-01T19:24:27.940Z,42675.36
2023-04-01T19:29:43.457Z,39800.79
2023-04-01T19:34:53.989Z,40271.88
2023-04-01T19:40:06.297Z,40715.47
2023-04-01T19:45:25.790Z,40886.26
2023-04-01T19:50:38.029Z,40784.78
2023-04-01T19:55:47.294Z,40905.43
2023-04-01T20:00:55.788Z,40308.50
2023-04-01T20:06:13.126Z,40773.51
2023-04-01T20:11:31.327Z,41554.43
2023-04-01T20:16:51.134Z,41522.33
2023-04-01T20:21:59.711Z,41315.04
2023-04-01T20:27:07.095Z,41483.00
2023-04-01T20:32:20.340Z,41485.84
2023-04-01T20:37:35.253Z,41517.40
2023-04-01T20:42:56.922Z,41511.12
2023-04-01T20:48:21.060Z,41095.70
2023-04-01T20:53:30.623Z,41026.57
2023-04-01T20:58:42.580Z,41320.35
2023-04-01T21:03:55.510Z,41498.94
2023-04-01T21:09:11.136Z,41426.70
2023-04-01T21:14:45.065Z,41586.02
2023-04-01T21:20:05.246Z,40712.72
2023-04-01T21:25:23.689Z,41009.18
2023-04-01T21:30:39.377Z,40511.07
2023-04-01T21:35:57.265Z,40705.10
2023-04-01T21:41:16.063Z,40481.87
2023-04-01T21:46:39.872Z,40507.27
2023-04-01T21:52:08.343Z,40358.16
2023-04-01T21:57:29.042Z,40462.69
2023-04-01T22:02:59.617Z,40138.34
2023-04-01T22:08:12.508Z,39847.97
2023-04-01T22:13:20.367Z,39765.46
2023-04-01T22:18:35.692Z,39852.43
2023-04-01T22:23:46.685Z,39541.89
2023-04-01T22:28:57.496Z,39606.18
2023-04-01T22:34:10.980Z,39647.34
2023-04-01T22:39:26.285Z,39873.00
2023-04-01T22:44:40.807Z,39614.79
2023-04-01T22:49:49.468Z,39868.12
2023-04-01T22:54:57.392Z,39533.15
2023-04-01T23:00:09.046Z,39466.99
2023-04-01T23:05:16.863Z,39615.18
2023-04-01T23:10:25.419Z,39588.73
2023-04-01T23:15:31.845Z,39565.49
2023-04-01T23:20:47.747Z,39491.75
2023-04-01T23:25:59.411Z,39397.83
2023-04-01T23:31:05.641Z,39454.68
2023-04-01T23:36:14.371Z,39573.98
2023-04-01T23:41:23.166Z,39363.79
2023-04-01T23:46:27.320Z,39432.25
2023-04-01T23:51:39.759Z,39492.29
2023-04-01T23:56:47.571Z,39630.35
